WESTPORT MEDIA Westport In The Media

Enter your "Place, State", US Zip Code or ICAO:  

Nice, France

 Lat: 43.65N, Lon: 7.20E
ICAO Used: LFMN
Current Conditions
Updated: 5:30 PM GMT1 TUE OCT 21 2014
Sun & Moon Information
Partly Cloudy
Partly Cloudy
Temp: 22°C
Humidity: 78%
Wind Speed: E 3 MPH
Barometer: 1008 mb
Dewpoint: 18°C
Heat Index: 22°C
Wind Chill: 22°C
Civil Twilight: 6:21 AM GMT1 Moon Phase:
Waning Crescent Moon
Sunrise: 6:51 AM GMT1
Sunset: 5:39 PM GMT1
Civil Twilight: 6:08 PM GMT1
Forecast for Nice, France:
(Forecast based on TAF for )
0600 PM GMT1 TUE OCT 21 2014
  
EVENING OVERNIGHT MORNING AFTERNOON EVENING OVERNIGHT
Fair Fair Fair Fair Fair Fair
ZoneCast:
Dated: 0600 PM GMT1 TUE OCT 21 2014
Evening...Becoming fair with winds from the west at 17 mph.

Overnight...Fair with winds from the west at 17 mph.

Morning...Fair with winds from the north at 12 mph.

Afternoon...Fair with winds from the eastsoutheast at 12 mph.

Evening...Fair with winds from the eastsoutheast at 12 mph.

Overnight...Fair with winds from the eastsoutheast at 12 mph.

Original Encoded TAF:
Dated: 0600 PM GMT1 TUE OCT 21 2014
TAF LFMN 211100Z 2112/2218 12004KT 9999 FEW020 
     BECMG 2117/2118 28015KT CAVOK 
     TEMPO 2118/2124 28015G25KT 
     BECMG 2200/2203 35010KT 
     TEMPO 2207/2210 35020G30KT 
     BECMG 2210/2212 11010KT